Time;durP1;ratioP1;P1;durP2;ratioP2;P2;SDS_P1;SDS_P2;PMS_P1;PMS_P2;Temp;Humidity;BMP_temperature;BMP_pressure;BME280_temperature;BME280_humidity;BME280_pressure;Samples;Min_cycle;Max_cycle;Signal;HPM_P1;HPM_P2
2024/01/24 00:00:14;;;;;;;4.82;1.05;;;9.70;60.60;;;;;;5052900;28;20052;-80
2024/01/24 00:02:40;;;;;;;5.15;0.90;;;9.70;60.90;;;;;;5052815;28;20059;-82
2024/01/24 00:05:06;;;;;;;4.57;1.30;;;9.70;61.50;;;;;;5034828;28;20025;-83
2024/01/24 00:07:31;;;;;;;2.75;0.93;;;9.70;61.80;;;;;;5052744;28;20381;-79
2024/01/24 00:09:57;;;;;;;5.85;1.10;;;9.70;62.00;;;;;;5052614;28;20025;-85
2024/01/24 00:12:23;;;;;;;1.85;0.63;;;9.70;62.20;;;;;;5052575;28;20078;-79
2024/01/24 00:14:48;;;;;;;3.75;0.80;;;9.80;62.40;;;;;;5052918;28;20037;-82
2024/01/24 00:17:14;;;;;;;4.68;0.85;;;9.80;62.50;;;;;;5052655;28;20518;-79
2024/01/24 00:19:39;;;;;;;2.38;0.70;;;9.90;62.80;;;;;;5052526;28;20414;-79
2024/01/24 00:22:05;;;;;;;4.95;1.00;;;9.90;63.00;;;;;;5052533;28;20406;-79
2024/01/24 00:24:30;;;;;;;3.80;1.00;;;9.90;63.40;;;;;;5052566;28;20033;-81
2024/01/24 00:26:56;;;;;;;6.45;1.23;;;9.90;63.90;;;;;;5052606;28;20087;-79
2024/01/24 00:29:21;;;;;;;4.85;1.15;;;9.90;64.10;;;;;;5052631;28;20017;-81
2024/01/24 00:31:48;;;;;;;2.85;0.77;;;10.00;64.00;;;;;;5052732;28;20083;-81
2024/01/24 00:34:15;;;;;;;3.10;0.95;;;10.00;64.10;;;;;;5052687;28;20021;-80
2024/01/24 00:36:40;;;;;;;4.93;0.82;;;10.10;64.60;;;;;;5052558;28;20106;-81
2024/01/24 00:39:07;;;;;;;4.57;0.98;;;10.10;64.80;;;;;;5052409;28;20021;-78
2024/01/24 00:41:33;;;;;;;5.43;1.25;;;10.10;64.70;;;;;;5052436;28;20108;-80
2024/01/24 00:43:58;;;;;;;3.80;0.88;;;10.00;64.30;;;;;;5034462;28;20048;-81
2024/01/24 00:46:24;;;;;;;2.53;0.82;;;9.90;64.30;;;;;;5052348;28;20037;-80
2024/01/24 00:48:50;;;;;;;3.33;0.95;;;9.90;64.50;;;;;;5056802;28;20025;-83
2024/01/24 00:51:15;;;;;;;3.13;0.60;;;9.90;65.20;;;;;;5056929;28;20033;-86
2024/01/24 00:53:43;;;;;;;4.75;1.35;;;9.90;66.50;;;;;;5056836;28;20072;-86
2024/01/24 00:56:08;;;;;;;3.85;0.73;;;10.00;65.70;;;;;;5057195;28;20025;-85
2024/01/24 00:58:34;;;;;;;3.22;0.85;;;10.00;65.50;;;;;;5057250;28;20163;-87
2024/01/24 01:01:00;;;;;;;6.07;0.90;;;9.90;65.80;;;;;;5038787;28;20029;-85
2024/01/24 01:03:25;;;;;;;3.05;0.80;;;10.00;66.40;;;;;;5056751;28;20025;-85
2024/01/24 01:05:51;;;;;;;3.55;0.85;;;9.90;66.20;;;;;;5055931;28;20025;-80
2024/01/24 01:08:16;;;;;;;3.67;1.02;;;9.90;66.40;;;;;;5056398;28;20021;-87
2024/01/24 01:10:42;;;;;;;3.72;1.10;;;9.90;66.80;;;;;;5061273;28;20501;-87
2024/01/24 01:13:07;;;;;;;4.20;0.77;;;9.80;67.50;;;;;;5063658;28;20100;-86
2024/01/24 01:15:33;;;;;;;5.00;1.25;;;9.90;67.10;;;;;;5067176;28;20078;-88
2024/01/24 01:17:58;;;;;;;2.08;0.70;;;9.90;67.20;;;;;;5044601;28;20049;-86
2024/01/24 01:20:24;;;;;;;4.00;0.80;;;9.90;67.90;;;;;;5061765;28;20465;-86
2024/01/24 01:22:50;;;;;;;2.05;0.68;;;10.00;67.90;;;;;;5057153;28;20386;-87
2024/01/24 01:25:15;;;;;;;2.58;0.82;;;10.00;68.10;;;;;;5055783;28;20381;-82
2024/01/24 01:27:41;;;;;;;2.45;0.60;;;10.10;68.80;;;;;;5055524;28;20055;-80
2024/01/24 01:30:07;;;;;;;4.22;0.90;;;10.10;68.50;;;;;;5055511;28;20092;-80
2024/01/24 01:32:33;;;;;;;2.33;0.70;;;10.10;68.60;;;;;;5055413;28;20029;-78
2024/01/24 01:34:59;;;;;;;2.20;0.63;;;10.10;68.70;;;;;;5055461;28;20083;-77
2024/01/24 01:37:25;;;;;;;2.60;0.50;;;10.10;68.80;;;;;;5055268;28;20448;-78
2024/01/24 01:39:51;;;;;;;2.47;0.65;;;10.10;69.00;;;;;;5055220;28;20064;-79
2024/01/24 01:42:16;;;;;;;2.05;0.68;;;10.10;69.00;;;;;;5055273;28;20025;-79
2024/01/24 01:44:48;;;;;;;1.80;0.50;;;10.10;69.40;;;;;;5055391;28;20067;-78
2024/01/24 01:47:15;;;;;;;2.33;0.68;;;10.20;69.20;;;;;;5037371;28;20035;-77
2024/01/24 01:49:43;;;;;;;1.75;0.63;;;10.30;69.20;;;;;;5054845;28;20033;-79
2024/01/24 01:52:09;;;;;;;3.38;0.70;;;10.30;69.10;;;;;;5055186;28;20033;-79
2024/01/24 01:54:34;;;;;;;3.65;0.80;;;10.30;69.00;;;;;;5055055;28;20075;-79
2024/01/24 01:57:01;;;;;;;2.67;0.70;;;10.30;68.90;;;;;;5055291;28;20112;-78
2024/01/24 01:59:27;;;;;;;2.08;0.70;;;10.30;69.10;;;;;;5054468;28;20017;-78
2024/01/24 02:01:56;;;;;;;3.70;0.88;;;10.30;69.10;;;;;;5054868;28;20478;-79
2024/01/24 02:04:22;;;;;;;3.05;0.90;;;10.30;69.20;;;;;;5037227;28;20033;-79
2024/01/24 02:06:48;;;;;;;2.65;0.63;;;10.40;69.70;;;;;;5055955;28;20039;-79
2024/01/24 02:09:13;;;;;;;4.03;0.80;;;10.50;69.40;;;;;;5055700;28;20414;-79
2024/01/24 02:11:40;;;;;;;2.08;0.60;;;10.50;69.30;;;;;;5055082;28;20029;-77
2024/01/24 02:14:06;;;;;;;3.15;0.63;;;10.50;69.50;;;;;;5055739;28;20029;-78
2024/01/24 02:16:31;;;;;;;1.73;0.52;;;10.50;70.00;;;;;;5055686;28;20028;-78
2024/01/24 02:18:57;;;;;;;2.63;0.75;;;10.50;70.20;;;;;;5055360;28;20036;-78
2024/01/24 02:21:22;;;;;;;5.80;1.10;;;10.60;70.20;;;;;;5064767;28;20024;-78
2024/01/24 02:23:48;;;;;;;2.60;0.68;;;10.60;70.30;;;;;;5066333;28;20031;-79
2024/01/24 02:26:15;;;;;;;1.92;0.75;;;10.60;70.40;;;;;;5036509;28;20067;-78
2024/01/24 02:28:40;;;;;;;4.07;0.75;;;10.60;70.60;;;;;;5054477;28;20021;-79
2024/01/24 02:31:06;;;;;;;3.85;0.98;;;10.60;70.50;;;;;;5054274;28;20335;-79
2024/01/24 02:33:31;;;;;;;2.83;0.82;;;10.70;70.30;;;;;;5054314;28;20024;-78
2024/01/24 02:35:57;;;;;;;3.25;0.90;;;10.70;70.40;;;;;;5054584;28;20144;-80
2024/01/24 02:38:23;;;;;;;3.05;0.80;;;10.70;70.50;;;;;;5036339;28;20032;-79
2024/01/24 02:40:49;;;;;;;3.70;0.93;;;10.70;70.50;;;;;;5055112;28;20432;-80
2024/01/24 02:43:14;;;;;;;3.50;0.93;;;10.70;70.80;;;;;;5054270;28;20033;-80
2024/01/24 02:45:40;;;;;;;4.90;0.98;;;10.80;70.80;;;;;;5054254;28;20044;-80
2024/01/24 02:48:06;;;;;;;6.63;0.75;;;10.80;70.60;;;;;;5054018;28;20017;-79
2024/01/24 02:50:31;;;;;;;2.45;0.98;;;10.80;70.70;;;;;;5054000;28;20083;-78
2024/01/24 02:52:57;;;;;;;3.65;0.80;;;10.80;70.80;;;;;;5053742;28;20076;-78
2024/01/24 02:55:22;;;;;;;4.50;1.00;;;10.80;70.80;;;;;;5036080;28;20025;-78
2024/01/24 02:57:48;;;;;;;2.30;0.85;;;10.90;70.60;;;;;;5053899;28;20021;-79
2024/01/24 03:00:14;;;;;;;3.33;1.00;;;10.90;70.80;;;;;;5053762;28;20515;-79
2024/01/24 03:02:40;;;;;;;3.05;1.00;;;10.90;70.90;;;;;;5053472;28;20029;-78
2024/01/24 03:05:08;;;;;;;2.53;0.95;;;10.90;70.90;;;;;;5053496;28;20029;-78
2024/01/24 03:07:34;;;;;;;4.72;1.02;;;10.90;71.00;;;;;;5053390;28;20036;-78
2024/01/24 03:10:00;;;;;;;4.13;0.70;;;10.80;71.20;;;;;;5052959;28;20032;-77
2024/01/24 03:12:26;;;;;;;3.50;0.90;;;10.80;71.30;;;;;;5051636;28;20025;-78
2024/01/24 03:14:51;;;;;;;2.33;0.65;;;10.90;71.20;;;;;;5053414;28;20040;-78
2024/01/24 03:17:17;;;;;;;3.03;0.90;;;11.00;71.00;;;;;;5053347;28;20024;-78
2024/01/24 03:19:43;;;;;;;3.20;1.05;;;11.00;71.10;;;;;;5053297;28;20032;-77
2024/01/24 03:22:09;;;;;;;2.90;1.00;;;11.10;71.00;;;;;;5053168;28;20013;-77
2024/01/24 03:24:34;;;;;;;2.35;1.05;;;11.00;70.90;;;;;;5053187;28;20082;-78
2024/01/24 03:27:00;;;;;;;2.80;0.90;;;11.00;71.20;;;;;;5053181;28;20462;-77
2024/01/24 03:29:25;;;;;;;3.35;0.93;;;11.00;71.30;;;;;;5035302;28;20377;-76
2024/01/24 03:31:51;;;;;;;6.28;1.00;;;11.10;71.70;;;;;;5053087;28;20538;-76
2024/01/24 03:34:16;;;;;;;3.08;0.70;;;11.10;71.50;;;;;;5053057;28;20025;-76
2024/01/24 03:36:42;;;;;;;2.65;0.93;;;11.10;71.40;;;;;;5053044;28;20474;-76
2024/01/24 03:39:11;;;;;;;1.83;0.80;;;11.10;71.80;;;;;;5053006;28;20028;-78
2024/01/24 03:41:37;;;;;;;3.03;1.20;;;11.10;71.80;;;;;;5052882;28;20049;-78
2024/01/24 03:44:03;;;;;;;3.38;1.08;;;11.20;71.70;;;;;;5053006;28;20017;-77
2024/01/24 03:46:29;;;;;;;2.05;0.80;;;11.20;71.60;;;;;;5052585;28;20112;-78
2024/01/24 03:48:54;;;;;;;1.98;0.70;;;11.20;71.60;;;;;;5052742;28;20118;-78
2024/01/24 03:51:20;;;;;;;2.63;0.88;;;11.20;71.60;;;;;;5052839;28;20041;-78
2024/01/24 03:53:46;;;;;;;3.88;0.90;;;11.20;71.60;;;;;;5052586;28;20441;-78
2024/01/24 03:56:11;;;;;;;3.05;0.90;;;11.20;71.70;;;;;;5052869;28;20025;-78
2024/01/24 03:58:37;;;;;;;2.97;1.05;;;11.20;71.60;;;;;;5052814;28;20025;-78
2024/01/24 04:01:03;;;;;;;2.47;0.90;;;11.20;71.70;;;;;;5052749;28;20053;-79
2024/01/24 04:03:29;;;;;;;1.65;0.95;;;11.30;71.90;;;;;;5052756;28;20112;-79
2024/01/24 04:05:55;;;;;;;2.42;0.85;;;11.40;71.80;;;;;;5052522;28;20135;-78
2024/01/24 04:08:21;;;;;;;4.10;1.20;;;11.30;71.80;;;;;;5052628;28;20113;-79
2024/01/24 04:10:47;;;;;;;3.08;1.00;;;11.40;71.60;;;;;;5052416;28;20575;-76
2024/01/24 04:13:13;;;;;;;4.95;0.80;;;11.50;71.60;;;;;;5052595;28;20373;-79
2024/01/24 04:15:39;;;;;;;3.13;0.80;;;11.40;71.50;;;;;;5052449;28;20056;-78
2024/01/24 04:18:05;;;;;;;2.28;0.80;;;11.50;71.60;;;;;;5052545;28;20021;-78
2024/01/24 04:20:30;;;;;;;4.50;1.20;;;11.50;71.70;;;;;;5052438;28;20032;-78
2024/01/24 04:22:56;;;;;;;3.47;0.80;;;11.60;71.50;;;;;;5037201;28;20071;-78
2024/01/24 04:25:21;;;;;;;2.33;0.80;;;11.60;71.70;;;;;;5056488;28;20052;-76
2024/01/24 04:27:47;;;;;;;3.47;0.88;;;11.60;71.60;;;;;;5056514;28;20033;-77
2024/01/24 04:30:13;;;;;;;2.90;0.88;;;11.60;71.40;;;;;;5056411;28;20025;-75
2024/01/24 04:32:38;;;;;;;4.68;1.10;;;11.60;71.30;;;;;;5038580;28;20051;-75
2024/01/24 04:35:04;;;;;;;2.20;0.73;;;11.60;71.40;;;;;;5056328;28;20104;-75
2024/01/24 04:37:30;;;;;;;4.05;1.10;;;11.60;71.50;;;;;;5056275;28;20025;-77
2024/01/24 04:39:55;;;;;;;4.40;1.10;;;11.50;71.70;;;;;;5056334;28;20079;-76
2024/01/24 04:42:21;;;;;;;5.38;0.82;;;11.60;71.60;;;;;;5056224;28;20143;-75
2024/01/24 04:44:46;;;;;;;2.47;1.00;;;11.60;71.60;;;;;;5055981;28;20036;-76
2024/01/24 04:47:15;;;;;;;4.43;1.05;;;11.70;71.50;;;;;;5056065;28;20067;-78
2024/01/24 04:49:40;;;;;;;2.40;0.98;;;11.70;71.50;;;;;;5056057;28;20545;-75
2024/01/24 04:52:07;;;;;;;2.70;0.95;;;11.70;72.70;;;;;;5055842;28;20031;-77
2024/01/24 04:54:35;;;;;;;2.13;0.82;;;11.70;71.80;;;;;;5056036;28;20033;-79
2024/01/24 04:57:04;;;;;;;3.10;1.08;;;11.70;71.80;;;;;;5055996;28;20398;-78
2024/01/24 04:59:30;;;;;;;3.90;0.95;;;11.70;71.80;;;;;;5055950;28;20075;-76
2024/01/24 05:01:55;;;;;;;1.73;1.10;;;11.70;71.70;;;;;;5037813;28;20021;-78
2024/01/24 05:04:21;;;;;;;3.85;1.02;;;11.70;71.90;;;;;;5055707;28;20029;-78
2024/01/24 05:06:46;;;;;;;4.65;1.00;;;11.80;71.70;;;;;;5038063;28;20489;-77
2024/01/24 05:09:14;;;;;;;3.58;1.40;;;11.70;71.80;;;;;;5055613;28;20021;-78
2024/01/24 05:11:40;;;;;;;2.88;1.00;;;11.80;71.80;;;;;;5055427;28;20104;-76
2024/01/24 05:14:06;;;;;;;4.38;1.25;;;11.70;71.80;;;;;;5055206;28;20032;-77
2024/01/24 05:16:31;;;;;;;3.75;1.17;;;11.80;71.90;;;;;;5055420;28;20021;-77
2024/01/24 05:18:57;;;;;;;4.40;1.25;;;11.80;71.60;;;;;;5055519;28;20523;-77
2024/01/24 05:21:23;;;;;;;2.40;0.93;;;11.80;71.80;;;;;;5055641;28;20084;-78
2024/01/24 05:23:48;;;;;;;2.72;1.20;;;11.70;72.10;;;;;;5055346;28;20025;-76
2024/01/24 05:26:14;;;;;;;2.42;1.00;;;11.70;72.30;;;;;;5055374;28;20083;-77
2024/01/24 05:28:40;;;;;;;3.08;1.20;;;11.70;72.10;;;;;;5055284;28;20397;-76
2024/01/24 05:31:06;;;;;;;3.58;0.90;;;11.70;72.40;;;;;;5055382;28;20031;-76
2024/01/24 05:33:32;;;;;;;2.63;0.90;;;11.80;72.30;;;;;;5054058;28;20096;-76
2024/01/24 05:35:57;;;;;;;1.38;0.63;;;11.80;72.30;;;;;;5037351;28;20021;-78
2024/01/24 05:38:23;;;;;;;3.80;1.23;;;11.80;72.50;;;;;;5055227;28;20021;-76
2024/01/24 05:40:49;;;;;;;3.33;1.20;;;11.70;72.70;;;;;;5055087;28;20115;-78
2024/01/24 05:43:15;;;;;;;2.08;1.20;;;11.70;72.70;;;;;;5054936;28;20123;-77
2024/01/24 05:45:40;;;;;;;1.38;0.70;;;11.80;73.00;;;;;;5056187;28;20068;-76
2024/01/24 05:48:06;;;;;;;2.53;1.02;;;11.80;72.80;;;;;;5054870;28;20036;-77
2024/01/24 05:50:31;;;;;;;2.67;1.08;;;11.80;72.80;;;;;;5055064;28;20029;-75
2024/01/24 05:52:58;;;;;;;3.30;1.13;;;11.70;72.90;;;;;;5054799;28;20079;-78
2024/01/24 05:55:23;;;;;;;2.95;0.77;;;11.70;73.10;;;;;;5054889;28;20047;-77
2024/01/24 05:57:49;;;;;;;1.73;0.75;;;11.70;73.20;;;;;;5054815;28;20485;-78
2024/01/24 06:00:14;;;;;;;3.05;1.08;;;11.80;73.40;;;;;;5054836;28;20039;-77
2024/01/24 06:02:41;;;;;;;2.33;1.30;;;11.80;73.10;;;;;;5054719;28;20075;-76
2024/01/24 06:05:10;;;;;;;2.17;0.85;;;11.70;73.20;;;;;;5054647;28;20116;-79
2024/01/24 06:07:36;;;;;;;2.17;1.00;;;11.70;73.50;;;;;;5054602;28;20052;-77
2024/01/24 06:10:01;;;;;;;2.10;0.90;;;11.80;73.50;;;;;;5036703;28;20402;-77
2024/01/24 06:12:28;;;;;;;3.55;1.02;;;11.70;73.40;;;;;;5036755;28;20017;-77
2024/01/24 06:14:55;;;;;;;1.88;1.25;;;11.70;73.60;;;;;;5054512;28;20091;-79
2024/01/24 06:17:22;;;;;;;2.78;1.27;;;11.70;73.60;;;;;;5054248;28;20028;-75
2024/01/24 06:19:50;;;;;;;4.93;1.08;;;11.70;73.60;;;;;;5054212;28;20025;-76
2024/01/24 06:22:15;;;;;;;2.15;1.15;;;11.80;73.50;;;;;;5054052;28;20025;-76
2024/01/24 06:24:41;;;;;;;2.60;1.35;;;11.80;73.40;;;;;;5053999;28;20040;-75
2024/01/24 06:27:08;;;;;;;2.45;1.30;;;11.70;73.50;;;;;;5053932;28;20477;-76
2024/01/24 06:29:34;;;;;;;2.58;1.20;;;11.70;73.60;;;;;;5053745;28;20017;-76
2024/01/24 06:31:59;;;;;;;3.10;1.48;;;11.70;73.90;;;;;;5053968;28;20036;-78
2024/01/24 06:34:36;;;;;;;4.10;1.33;;;11.70;74.00;;;;;;5036159;28;20189;-76
2024/01/24 06:37:02;;;;;;;2.00;1.02;;;11.70;74.00;;;;;;5054011;28;20527;-78
2024/01/24 06:39:27;;;;;;;3.47;1.15;;;11.60;74.00;;;;;;5053821;28;20137;-77
2024/01/24 06:41:55;;;;;;;2.42;1.10;;;11.60;74.20;;;;;;5053848;28;20033;-77
2024/01/24 06:44:20;;;;;;;3.67;1.00;;;11.60;73.80;;;;;;5054000;28;20021;-78
2024/01/24 06:46:46;;;;;;;2.85;0.85;;;11.70;74.00;;;;;;5053521;28;20040;-79
2024/01/24 06:49:12;;;;;;;1.52;0.82;;;11.60;73.70;;;;;;5053690;28;20017;-77
2024/01/24 06:51:38;;;;;;;3.10;0.93;;;11.60;73.30;;;;;;5053636;28;20489;-80
2024/01/24 06:54:05;;;;;;;3.40;1.15;;;11.70;73.30;;;;;;5053586;28;20125;-78
2024/01/24 06:56:31;;;;;;;1.83;0.90;;;11.70;73.10;;;;;;5036014;28;20437;-78
2024/01/24 06:58:56;;;;;;;1.42;0.70;;;11.70;72.60;;;;;;5035811;28;20046;-80
2024/01/24 07:01:22;;;;;;;2.38;1.00;;;11.70;72.60;;;;;;5053684;28;20079;-78
2024/01/24 07:03:48;;;;;;;0.82;0.50;;;11.70;72.60;;;;;;5035776;28;20025;-76
2024/01/24 07:06:13;;;;;;;1.95;0.70;;;11.60;72.40;;;;;;5035473;28;20040;-75
2024/01/24 07:08:40;;;;;;;1.30;0.60;;;11.60;72.30;;;;;;5053562;28;20095;-76
2024/01/24 07:11:06;;;;;;;1.48;0.65;;;11.70;72.10;;;;;;5053537;28;20074;-76
2024/01/24 07:13:32;;;;;;;1.70;0.65;;;11.70;71.90;;;;;;5053379;28;20025;-78
2024/01/24 07:16:00;;;;;;;2.55;0.70;;;11.70;71.80;;;;;;5035647;28;20460;-76
2024/01/24 07:18:26;;;;;;;1.67;0.70;;;11.70;72.00;;;;;;5053121;28;20373;-76
2024/01/24 07:20:51;;;;;;;2.35;0.90;;;11.70;71.70;;;;;;5053611;28;20086;-76
2024/01/24 07:23:17;;;;;;;1.70;0.47;;;11.70;71.60;;;;;;5053209;28;20545;-77
2024/01/24 07:25:45;;;;;;;0.60;0.22;;;11.70;71.40;;;;;;5035136;28;20044;-78
2024/01/24 07:28:11;;;;;;;1.60;0.93;;;11.80;71.00;;;;;;5053107;28;20028;-76
2024/01/24 07:30:36;;;;;;;1.60;0.50;;;11.80;70.90;;;;;;5035553;28;20021;-78
2024/01/24 07:33:03;;;;;;;0.30;0.28;;;11.80;70.20;;;;;;5053071;28;20519;-78
2024/01/24 07:35:29;;;;;;;0.85;0.40;;;11.90;70.30;;;;;;5053131;28;20025;-80
2024/01/24 07:37:55;;;;;;;0.63;0.30;;;11.90;70.00;;;;;;5052966;28;20028;-77
2024/01/24 07:40:20;;;;;;;1.63;0.70;;;12.00;69.90;;;;;;5052981;28;20114;-76
2024/01/24 07:42:46;;;;;;;1.80;0.30;;;12.00;69.80;;;;;;5052843;28;20087;-77
2024/01/24 07:45:12;;;;;;;0.85;0.20;;;12.00;69.60;;;;;;5034734;28;20036;-77
2024/01/24 07:47:37;;;;;;;0.73;0.10;;;12.00;69.50;;;;;;5034948;28;20029;-76
2024/01/24 07:50:03;;;;;;;0.47;0.20;;;12.00;69.00;;;;;;5052776;28;20062;-77
2024/01/24 07:52:29;;;;;;;0.57;0.35;;;12.10;68.90;;;;;;5034272;28;20397;-76
2024/01/24 07:54:54;;;;;;;0.30;0.30;;;12.00;69.00;;;;;;5052728;28;20104;-79
2024/01/24 07:57:20;;;;;;;0.45;0.45;;;12.10;69.00;;;;;;5034305;28;20032;-77
2024/01/24 07:59:45;;;;;;;0.32;0.28;;;12.10;68.60;;;;;;5052606;28;20024;-78
2024/01/24 08:02:13;;;;;;;0.57;0.25;;;12.10;68.40;;;;;;5052538;28;20107;-77
2024/01/24 08:04:39;;;;;;;0.20;0.20;;;12.10;68.20;;;;;;5052460;28;20079;-77
2024/01/24 08:07:04;;;;;;;0.40;0.35;;;12.20;68.50;;;;;;5052589;28;20041;-76
2024/01/24 08:09:30;;;;;;;0.25;0.10;;;12.20;68.40;;;;;;5052428;28;20027;-76
2024/01/24 08:11:55;;;;;;;0.47;0.25;;;12.20;69.00;;;;;;5034548;28;20057;-78
2024/01/24 08:14:21;;;;;;;1.05;0.20;;;12.10;69.70;;;;;;5052573;28;20021;-77
2024/01/24 08:17:01;;;;;;;0.88;0.30;;;12.10;70.30;;;;;;5052528;28;20025;-79
2024/01/24 08:19:26;;;;;;;0.43;0.20;;;12.10;69.70;;;;;;5052338;28;20047;-80
2024/01/24 08:21:52;;;;;;;0.30;0.10;;;12.10;69.50;;;;;;5052645;28;20021;-77
2024/01/24 08:24:17;;;;;;;0.57;0.30;;;12.20;69.20;;;;;;5052493;28;20125;-76
2024/01/24 08:26:43;;;;;;;0.17;0.17;;;12.30;69.20;;;;;;5052415;28;20087;-77
2024/01/24 08:29:09;;;;;;;0.20;0.15;;;12.30;68.70;;;;;;5052352;28;20386;-80
2024/01/24 08:31:35;;;;;;;0.30;0.20;;;12.30;68.70;;;;;;5052449;28;20021;-75
2024/01/24 08:34:00;;;;;;;0.50;0.20;;;12.30;68.60;;;;;;5052208;28;20029;-76
2024/01/24 08:36:26;;;;;;;0.30;0.20;;;12.30;69.20;;;;;;5052081;28;20423;-77
2024/01/24 08:38:51;;;;;;;0.20;0.20;;;12.20;69.30;;;;;;5052188;28;20018;-76
2024/01/24 08:41:17;;;;;;;0.55;0.10;;;12.20;69.60;;;;;;5052175;28;20025;-77
2024/01/24 08:43:43;;;;;;;0.20;0.20;;;12.20;69.40;;;;;;5052182;28;20496;-79
2024/01/24 08:46:08;;;;;;;0.20;0.10;;;12.20;69.40;;;;;;5034342;28;20130;-79
2024/01/24 08:48:34;;;;;;;0.20;0.20;;;12.30;68.80;;;;;;5051984;28;20053;-78
2024/01/24 08:50:59;;;;;;;0.10;0.10;;;12.30;69.30;;;;;;5052512;28;20077;-75
2024/01/24 08:53:25;;;;;;;1.10;0.10;;;12.30;69.20;;;;;;5034209;28;20045;-79
2024/01/24 08:55:51;;;;;;;0.55;0.20;;;12.30;69.20;;;;;;5052252;28;20029;-77
2024/01/24 08:58:17;;;;;;;0.57;0.20;;;12.20;69.00;;;;;;5034019;28;20021;-76
2024/01/24 09:00:42;;;;;;;0.70;0.20;;;12.20;69.20;;;;;;5052055;28;20037;-75
2024/01/24 09:03:08;;;;;;;1.08;0.20;;;12.30;69.30;;;;;;5051819;28;20024;-76
2024/01/24 09:05:33;;;;;;;0.45;0.30;;;12.30;69.00;;;;;;5051894;28;20033;-76
2024/01/24 09:07:59;;;;;;;0.20;0.20;;;12.30;69.50;;;;;;5052719;28;20025;-76
2024/01/24 09:10:25;;;;;;;0.00;0.00;;;12.40;69.50;;;;;;5055505;28;20021;-76
2024/01/24 09:12:50;;;;;;;0.52;0.20;;;12.40;69.00;;;;;;5055466;28;20078;-76
2024/01/24 09:15:16;;;;;;;0.10;0.10;;;12.40;69.10;;;;;;5055580;28;20106;-77
2024/01/24 09:17:41;;;;;;;0.60;0.50;;;12.50;69.20;;;;;;5037309;28;20021;-77
2024/01/24 09:20:07;;;;;;;0.10;0.10;;;12.50;69.30;;;;;;5037575;28;20093;-78
2024/01/24 09:22:33;;;;;;;0.13;0.13;;;12.50;69.20;;;;;;5055661;28;20025;-75
2024/01/24 09:24:58;;;;;;;0.65;0.20;;;12.50;69.20;;;;;;5039892;28;20034;-76
2024/01/24 09:27:24;;;;;;;0.32;0.13;;;12.60;69.60;;;;;;5035353;28;20025;-75
2024/01/24 09:29:50;;;;;;;0.47;0.10;;;12.50;69.60;;;;;;5035218;28;20028;-76
2024/01/24 09:32:15;;;;;;;0.32;0.10;;;12.60;69.50;;;;;;5035485;28;20083;-76
2024/01/24 09:34:42;;;;;;;0.75;0.20;;;12.60;69.60;;;;;;5035186;28;20091;-76
2024/01/24 09:37:08;;;;;;;0.38;0.20;;;12.60;69.20;;;;;;5035121;28;20025;-76
2024/01/24 09:39:33;;;;;;;0.20;0.10;;;12.70;69.20;;;;;;5035067;28;20030;-76
2024/01/24 09:42:01;;;;;;;0.20;0.20;;;12.70;69.40;;;;;;5035018;28;20030;-76
2024/01/24 09:44:34;;;;;;;0.82;0.20;;;12.70;69.20;;;;;;5033997;28;20422;-76
2024/01/24 09:47:01;;;;;;;1.17;0.20;;;12.80;69.00;;;;;;5034907;28;20037;-76
2024/01/24 09:49:28;;;;;;;0.00;0.00;;;12.80;69.30;;;;;;5035166;28;20025;-77
2024/01/24 09:51:54;;;;;;;0.32;0.20;;;12.80;69.00;;;;;;5034954;28;20021;-77
2024/01/24 09:54:20;;;;;;;0.30;0.15;;;12.80;69.40;;;;;;5034824;28;20038;-76
2024/01/24 09:56:48;;;;;;;0.43;0.10;;;12.80;69.20;;;;;;5034713;28;20105;-77
2024/01/24 09:59:14;;;;;;;0.45;0.10;;;12.90;69.10;;;;;;5034834;28;20022;-76
2024/01/24 10:01:40;;;;;;;0.10;0.10;;;12.80;68.80;;;;;;5033674;28;20021;-75
2024/01/24 10:04:06;;;;;;;0.10;0.10;;;12.90;68.80;;;;;;5034635;28;20422;-76
2024/01/24 10:06:33;;;;;;;0.10;0.10;;;13.00;68.20;;;;;;5034505;28;20033;-76
2024/01/24 10:08:59;;;;;;;0.30;0.30;;;12.90;69.20;;;;;;5034750;28;20482;-76
2024/01/24 10:11:25;;;;;;;0.20;0.20;;;12.90;68.90;;;;;;5034679;28;20044;-76
2024/01/24 10:13:58;;;;;;;0.30;0.20;;;13.00;68.70;;;;;;5034396;28;20510;-76
2024/01/24 10:16:27;;;;;;;0.43;0.10;;;12.90;68.90;;;;;;5016493;28;20419;-74
2024/01/24 10:18:56;;;;;;;0.10;0.10;;;12.90;69.20;;;;;;5016598;28;20035;-76
2024/01/24 10:21:22;;;;;;;0.20;0.10;;;12.90;68.90;;;;;;5033398;28;20017;-78
2024/01/24 10:23:49;;;;;;;0.10;0.10;;;12.90;69.10;;;;;;5034348;28;20029;-77
2024/01/24 10:26:15;;;;;;;0.30;0.30;;;12.90;68.90;;;;;;5034060;28;20037;-77
2024/01/24 10:28:43;;;;;;;0.17;0.13;;;12.90;68.80;;;;;;5034203;28;20076;-77
2024/01/24 10:31:09;;;;;;;0.43;0.10;;;13.00;68.10;;;;;;5034095;28;20029;-77
2024/01/24 10:33:35;;;;;;;1.08;0.10;;;13.10;67.80;;;;;;5034185;28;20026;-78
2024/01/24 10:36:01;;;;;;;0.43;0.10;;;13.20;67.60;;;;;;5032916;28;20033;-76
2024/01/24 10:38:31;;;;;;;0.68;0.10;;;13.10;67.60;;;;;;5033754;28;20018;-78
2024/01/24 10:41:01;;;;;;;0.20;0.17;;;13.20;67.60;;;;;;5034038;28;20036;-78
2024/01/24 10:43:28;;;;;;;0.00;0.00;;;13.10;68.20;;;;;;5033942;28;20304;-78
2024/01/24 10:45:54;;;;;;;0.10;0.10;;;13.00;68.20;;;;;;5033824;28;20037;-78
2024/01/24 10:48:20;;;;;;;0.90;0.10;;;13.10;67.90;;;;;;5033906;28;20022;-78
2024/01/24 10:50:47;;;;;;;0.10;0.10;;;13.10;68.20;;;;;;5032999;28;20029;-82
2024/01/24 10:53:13;;;;;;;0.17;0.10;;;13.20;67.60;;;;;;5033943;28;20049;-79
2024/01/24 10:55:42;;;;;;;0.30;0.30;;;13.30;67.50;;;;;;5033779;28;20056;-76
2024/01/24 10:58:10;;;;;;;0.08;0.08;;;13.30;67.10;;;;;;5033989;28;20098;-79
2024/01/24 11:00:37;;;;;;;0.68;0.38;;;13.40;67.20;;;;;;5033703;28;20053;-79
2024/01/24 11:03:03;;;;;;;0.10;0.08;;;13.50;66.30;;;;;;5033695;28;20536;-77
2024/01/24 11:05:41;;;;;;;1.33;0.10;;;13.80;65.50;;;;;;5033351;28;20037;-79
2024/01/24 11:08:48;;;;;;;0.38;0.10;;;14.00;64.60;;;;;;5033221;28;20124;-77
2024/01/24 11:11:16;;;;;;;0.43;0.20;;;14.10;63.80;;;;;;5015448;28;20068;-77
2024/01/24 11:13:41;;;;;;;0.10;0.10;;;13.90;64.70;;;;;;5033529;28;20429;-77
2024/01/24 11:16:25;;;;;;;0.17;0.10;;;13.60;65.70;;;;;;5032940;28;20025;-78
2024/01/24 11:18:51;;;;;;;0.15;0.10;;;13.50;66.40;;;;;;5033304;28;20589;-78
2024/01/24 11:21:21;;;;;;;0.13;0.13;;;13.40;66.70;;;;;;5033290;28;20100;-78
2024/01/24 11:23:50;;;;;;;0.47;0.20;;;13.40;66.80;;;;;;5032140;28;20075;-77
2024/01/24 11:26:18;;;;;;;0.10;0.10;;;13.30;67.70;;;;;;5039044;28;20028;-77
2024/01/24 11:28:47;;;;;;;1.45;0.10;;;13.20;68.30;;;;;;5052721;28;20025;-77
2024/01/24 11:31:14;;;;;;;0.60;0.10;;;13.20;68.30;;;;;;5034576;28;20033;-79
2024/01/24 11:34:08;;;;;;;0.75;0.20;;;13.30;68.40;;;;;;5035027;28;20135;-79
2024/01/24 11:36:58;;;;;;;0.22;0.13;;;13.20;68.30;;;;;;5035534;28;20021;-79
2024/01/24 11:39:34;;;;;;;0.10;0.10;;;13.30;68.30;;;;;;5019454;28;20025;-78
2024/01/24 11:42:30;;;;;;;0.00;0.00;;;13.20;68.50;;;;;;5034971;28;20029;-78
2024/01/24 11:45:16;;;;;;;0.10;0.10;;;13.10;68.50;;;;;;5034979;28;20355;-79
2024/01/24 11:47:43;;;;;;;0.30;0.00;;;13.20;68.50;;;;;;5035104;28;20045;-77
2024/01/24 11:50:09;;;;;;;0.22;0.10;;;13.10;69.20;;;;;;5018918;28;20044;-78
2024/01/24 11:52:35;;;;;;;0.10;0.10;;;13.10;68.90;;;;;;5035201;28;20041;-79
2024/01/24 11:55:01;;;;;;;0.00;0.00;;;13.10;69.30;;;;;;5035412;28;20138;-85
2024/01/24 11:57:29;;;;;;;0.30;0.00;;;13.00;69.10;;;;;;5054801;28;20028;-92
2024/01/24 11:59:57;;;;;;;1.95;0.20;;;13.10;68.70;;;;;;5036454;28;20067;-78
2024/01/24 12:02:23;;;;;;;0.60;0.10;;;13.20;68.50;;;;;;5035130;28;20482;-81
2024/01/24 12:04:53;;;;;;;0.05;0.05;;;13.30;67.90;;;;;;5036874;28;20029;-79
2024/01/24 12:07:19;;;;;;;0.50;0.10;;;13.50;67.30;;;;;;5036681;28;20087;-77
2024/01/24 12:09:48;;;;;;;1.40;0.10;;;13.70;65.80;;;;;;5035145;28;20027;-78
2024/01/24 12:12:16;;;;;;;1.38;0.00;;;14.10;65.00;;;;;;5036280;28;20032;-77
2024/01/24 12:14:44;;;;;;;1.85;1.30;;;14.20;63.70;;;;;;5018564;28;20025;-78
2024/01/24 12:17:11;;;;;;;0.73;0.10;;;14.10;64.10;;;;;;5034852;28;20036;-78
2024/01/24 12:19:42;;;;;;;0.30;0.10;;;14.10;64.40;;;;;;5053119;28;20424;-79
2024/01/24 12:22:09;;;;;;;0.00;0.00;;;14.10;64.30;;;;;;5034771;28;20066;-78
2024/01/24 12:24:40;;;;;;;0.10;0.00;;;13.90;65.30;;;;;;5034993;28;20123;-76
2024/01/24 12:27:08;;;;;;;0.22;0.10;;;13.70;65.80;;;;;;5034534;28;20485;-79
2024/01/24 12:29:34;;;;;;;1.45;0.00;;;13.70;66.10;;;;;;5034937;28;20029;-80
2024/01/24 12:32:05;;;;;;;0.30;0.10;;;13.70;66.00;;;;;;5035082;28;20120;-77
2024/01/24 12:34:31;;;;;;;1.42;0.25;;;13.70;66.10;;;;;;5018346;28;20037;-78
2024/01/24 12:37:00;;;;;;;0.10;0.10;;;13.70;66.60;;;;;;5034490;28;20469;-78
2024/01/24 12:39:31;;;;;;;0.13;0.13;;;13.60;66.70;;;;;;5034421;28;20132;-76
2024/01/24 12:42:00;;;;;;;0.25;0.20;;;13.60;66.40;;;;;;5034588;28;20484;-77
2024/01/24 12:44:27;;;;;;;0.10;0.10;;;13.70;66.20;;;;;;5037759;28;20021;-77